Terminal Aerodrome Forecast
Issued by NWS

Current Version | Previous Version | Text Only | Print | Product List | Glossary Off
Versions: 1 2 3 4 5 6 7 8 9 10 11 12 13 14 15 16 17 18 19 20 21 22 23 24 25

000
FTUS41 KRLX 292340
TAFCKB
TAF
KCKB 292340Z 3000/3024 00000KT P6SM SCT040
     FM300500 00000KT 5SM BR SCT040
     FM300900 00000KT 4SM BR BKN040
     FM301100 00000KT 6SM BR BKN040
     FM301200 00000KT P6SM BKN040
     FM302200 VRB03KT P6SM VCTS BKN050CB=

USA.gov is the U.S. government's official web portal to all federal, state and local government web resources and services.